Time,TemperatureF,DewpointF,PressureIn,WindDirection,WindDirectionDegrees,WindSpeedMPH,WindSpeedGustMPH,Humidity,HourlyPrecipIn,Conditions,Clouds,dailyrainin,SoftwareType,DateUTC
2013-02-24 00:00:00,38.6,16.4,30.21,NNW,331,0.0,12.0,40,0.00,,,0.00,VWS V14.01,2013-02-24 08:00:00,
2013-02-24 00:02:00,38.5,16.3,30.21,NNE,14,4.0,4.0,40,0.00,,,0.00,VWS V14.01,2013-02-24 08:02:00,
2013-02-24 00:07:00,38.3,16.1,30.21,NNE,30,5.0,5.0,40,0.00,,,0.00,VWS V14.01,2013-02-24 08:07:00,
2013-02-24 00:12:00,38.1,15.9,30.21,NNW,346,0.0,5.0,40,0.00,,,0.00,VWS V14.01,2013-02-24 08:12:00,
2013-02-24 00:17:00,38.0,15.8,30.21,NE,36,1.0,9.0,40,0.00,,,0.00,VWS V14.01,2013-02-24 08:17:00,
2013-02-24 00:22:00,37.9,15.8,30.21,NNE,19,7.0,9.0,40,0.00,,,0.00,VWS V14.01,2013-02-24 08:22:00,
2013-02-24 00:27:00,37.7,16.1,30.21,NNE,33,5.0,9.0,41,0.00,,,0.00,VWS V14.01,2013-02-24 08:27:00,
2013-02-24 00:30:00,37.7,16.1,30.21,North,350,0.0,11.0,41,0.00,,,0.00,VWS V14.01,2013-02-24 08:30:00,
2013-02-24 00:32:00,37.8,16.2,30.20,NE,51,4.0,6.0,41,0.00,,,0.00,VWS V14.01,2013-02-24 08:32:00,
2013-02-24 00:37:00,38.2,16.0,30.20,NE,37,14.0,16.0,40,0.00,,,0.00,VWS V14.01,2013-02-24 08:37:00,
2013-02-24 00:42:00,38.9,16.1,30.21,NE,37,6.0,16.0,39,0.00,,,0.00,VWS V14.01,2013-02-24 08:42:00,
2013-02-24 00:47:00,39.1,16.2,30.20,NE,34,5.0,17.0,39,0.00,,,0.00,VWS V14.01,2013-02-24 08:47:00,
2013-02-24 00:52:00,39.1,15.6,30.20,NNE,30,5.0,17.0,38,0.00,,,0.00,VWS V14.01,2013-02-24 08:52:00,
2013-02-24 00:57:00,38.9,16.1,30.21,NE,38,7.0,17.0,39,0.00,,,0.00,VWS V14.01,2013-02-24 08:57:00,
2013-02-24 01:00:00,38.9,16.1,30.21,NNE,24,4.0,17.0,39,0.00,,,0.00,VWS V14.01,2013-02-24 09:00:00,
2013-02-24 01:02:00,38.9,16.1,30.21,NNE,18,9.0,10.0,39,0.00,,,0.00,VWS V14.01,2013-02-24 09:02:00,
2013-02-24 01:07:00,38.8,16.0,30.21,NNW,346,2.0,10.0,39,0.00,,,0.00,VWS V14.01,2013-02-24 09:07:00,
2013-02-24 01:12:00,38.5,15.7,30.21,NNW,345,2.0,10.0,39,0.00,,,0.00,VWS V14.01,2013-02-24 09:12:00,
2013-02-24 01:17:00,38.3,16.1,30.21,NNE,29,5.0,10.0,40,0.00,,,0.00,VWS V14.01,2013-02-24 09:17:00,
2013-02-24 01:22:00,38.2,16.0,30.21,NE,41,1.0,10.0,40,0.00,,,0.00,VWS V14.01,2013-02-24 09:22:00,
2013-02-24 01:27:00,38.0,15.8,30.21,NNE,28,0.0,10.0,40,0.00,,,0.00,VWS V14.01,2013-02-24 09:27:00,
2013-02-24 01:30:00,37.8,16.2,30.21,NNE,19,0.0,10.0,41,0.00,,,0.00,VWS V14.01,2013-02-24 09:30:00,
2013-02-24 01:32:00,37.7,16.1,30.21,NNE,24,2.0,7.0,41,0.00,,,0.00,VWS V14.01,2013-02-24 09:32:00,
2013-02-24 01:37:00,37.5,16.0,30.21,North,360,0.0,9.0,41,0.00,,,0.00,VWS V14.01,2013-02-24 09:37:00,
2013-02-24 01:42:00,37.3,16.3,30.21,NNE,29,0.0,9.0,42,0.00,,,0.00,VWS V14.01,2013-02-24 09:42:00,
2013-02-24 01:47:00,37.0,16.1,30.21,North,355,0.0,9.0,42,0.00,,,0.00,VWS V14.01,2013-02-24 09:47:00,
2013-02-24 01:53:00,36.8,16.4,30.21,North,360,0.0,9.0,43,0.00,,,0.00,VWS V14.01,2013-02-24 09:53:00,
2013-02-24 01:58:00,36.5,16.1,30.21,North,360,0.0,9.0,43,0.00,,,0.00,VWS V14.01,2013-02-24 09:58:00,
2013-02-24 02:00:00,36.4,16.6,30.21,North,360,0.0,9.0,44,0.00,,,0.00,VWS V14.01,2013-02-24 10:00:00,
2013-02-24 02:03:00,36.3,17.0,30.21,North,5,0.0,0.0,45,0.00,,,0.00,VWS V14.01,2013-02-24 10:03:00,
2013-02-24 02:08:00,34.9,18.6,30.21,North,5,0.0,0.0,51,0.00,,,0.00,VWS V14.01,2013-02-24 10:08:00,
2013-02-24 02:13:00,33.8,18.5,30.21,North,5,0.0,0.0,53,0.00,,,0.00,VWS V14.01,2013-02-24 10:13:00,
2013-02-24 02:18:00,33.0,18.2,30.21,North,5,0.0,0.0,54,0.00,,,0.00,VWS V14.01,2013-02-24 10:18:00,
2013-02-24 02:23:00,32.5,18.1,30.20,North,5,0.0,0.0,55,0.00,,,0.00,VWS V14.01,2013-02-24 10:23:00,
2013-02-24 02:28:00,32.0,18.1,30.20,North,360,0.0,0.0,56,0.00,,,0.00,VWS V14.01,2013-02-24 10:28:00,
2013-02-24 02:30:00,31.8,18.3,30.20,North,5,0.0,1.0,57,0.00,,,0.00,VWS V14.01,2013-02-24 10:30:00,
2013-02-24 02:33:00,31.6,18.5,30.20,North,5,0.0,0.0,58,0.00,,,0.00,VWS V14.01,2013-02-24 10:33:00,
2013-02-24 02:37:00,31.3,18.2,30.20,North,5,0.0,0.0,58,0.00,,,0.00,VWS V14.01,2013-02-24 10:37:00,
2013-02-24 02:43:00,31.0,18.4,30.20,North,360,0.0,0.0,59,0.00,,,0.00,VWS V14.01,2013-02-24 10:43:00,
2013-02-24 02:48:00,30.7,18.1,30.20,North,360,0.0,0.0,59,0.00,,,0.00,VWS V14.01,2013-02-24 10:48:00,
2013-02-24 02:53:00,30.4,18.2,30.20,North,5,0.0,1.0,60,0.00,,,0.00,VWS V14.01,2013-02-24 10:53:00,
2013-02-24 02:58:00,30.3,18.5,30.20,North,5,0.0,1.0,61,0.00,,,0.00,VWS V14.01,2013-02-24 10:58:00,
2013-02-24 03:00:00,30.5,17.9,30.20,NNE,22,1.0,3.0,59,0.00,,,0.00,VWS V14.01,2013-02-24 11:00:00,
2013-02-24 03:03:00,30.7,18.1,30.20,NNE,22,0.0,1.0,59,0.00,,,0.00,VWS V14.01,2013-02-24 11:03:00,
2013-02-24 03:08:00,30.8,18.6,30.20,NNE,22,0.0,1.0,60,0.00,,,0.00,VWS V14.01,2013-02-24 11:08:00,
2013-02-24 03:13:00,30.6,17.6,30.20,NNE,22,0.0,1.0,58,0.00,,,0.00,VWS V14.01,2013-02-24 11:13:00,
2013-02-24 03:18:00,30.5,17.9,30.20,NNE,22,0.0,1.0,59,0.00,,,0.00,VWS V14.01,2013-02-24 11:18:00,
2013-02-24 03:23:00,30.3,18.1,30.20,NNE,22,0.0,1.0,60,0.00,,,0.00,VWS V14.01,2013-02-24 11:23:00,
2013-02-24 03:27:00,30.1,17.9,30.19,NNE,22,0.0,1.0,60,0.00,,,0.00,VWS V14.01,2013-02-24 11:27:00,
2013-02-24 03:30:00,29.9,18.1,30.20,NNE,22,0.0,1.0,61,0.00,,,0.00,VWS V14.01,2013-02-24 11:30:00,
2013-02-24 03:32:00,29.8,18.0,30.20,NNE,22,0.0,0.0,61,0.00,,,0.00,VWS V14.01,2013-02-24 11:32:00,
2013-02-24 03:37:00,29.6,17.8,30.20,NNE,22,0.0,0.0,61,0.00,,,0.00,VWS V14.01,2013-02-24 11:37:00,
2013-02-24 03:42:00,29.6,17.8,30.20,NNE,22,0.0,0.0,61,0.00,,,0.00,VWS V14.01,2013-02-24 11:42:00,
2013-02-24 03:47:00,29.5,17.7,30.20,NNE,22,0.0,0.0,61,0.00,,,0.00,VWS V14.01,2013-02-24 11:47:00,
2013-02-24 03:52:00,30.0,17.4,30.20,NNE,22,0.0,0.0,59,0.00,,,0.00,VWS V14.01,2013-02-24 11:52:00,
2013-02-24 03:57:00,30.8,17.8,30.20,NNE,22,0.0,1.0,58,0.00,,,0.00,VWS V14.01,2013-02-24 11:57:00,
2013-02-24 04:00:00,31.0,17.6,30.20,NNE,22,0.0,1.0,57,0.00,,,0.00,VWS V14.01,2013-02-24 12:00:00,
2013-02-24 04:02:00,31.1,17.7,30.20,NNE,22,0.0,0.0,57,0.00,,,0.00,VWS V14.01,2013-02-24 12:02:00,
2013-02-24 04:07:00,31.2,16.9,30.20,NNE,22,0.0,0.0,55,0.00,,,0.00,VWS V14.01,2013-02-24 12:07:00,
2013-02-24 04:12:00,31.5,17.6,30.20,NNE,22,0.0,0.0,56,0.00,,,0.00,VWS V14.01,2013-02-24 12:12:00,
2013-02-24 04:18:00,31.4,17.5,30.20,NNE,22,0.0,0.0,56,0.00,,,0.00,VWS V14.01,2013-02-24 12:18:00,
2013-02-24 04:23:00,31.5,17.2,30.20,NNE,22,2.0,2.0,55,0.00,,,0.00,VWS V14.01,2013-02-24 12:23:00,
2013-02-24 04:28:00,31.6,17.7,30.21,NNE,22,0.0,2.0,56,0.00,,,0.00,VWS V14.01,2013-02-24 12:28:00,
2013-02-24 04:30:00,31.5,17.2,30.20,NNE,22,0.0,2.0,55,0.00,,,0.00,VWS V14.01,2013-02-24 12:30:00,
2013-02-24 04:33:00,31.4,17.9,30.20,NNE,22,0.0,1.0,57,0.00,,,0.00,VWS V14.01,2013-02-24 12:33:00,
2013-02-24 04:38:00,31.1,17.7,30.20,NNE,22,0.0,1.0,57,0.00,,,0.00,VWS V14.01,2013-02-24 12:38:00,
2013-02-24 04:42:00,30.6,17.6,30.20,NNE,22,0.0,1.0,58,0.00,,,0.00,VWS V14.01,2013-02-24 12:42:00,
2013-02-24 04:48:00,30.1,17.9,30.20,NNE,22,0.0,1.0,60,0.00,,,0.00,VWS V14.01,2013-02-24 12:48:00,
2013-02-24 04:53:00,29.6,17.4,30.20,NNE,22,0.0,2.0,60,0.00,,,0.00,VWS V14.01,2013-02-24 12:53:00,
2013-02-24 04:58:00,30.2,16.4,30.20,North,355,0.0,3.0,56,0.00,,,0.00,VWS V14.01,2013-02-24 12:58:00,
2013-02-24 05:00:00,31.2,16.1,30.20,NNE,15,0.0,6.0,53,0.00,,,0.00,VWS V14.01,2013-02-24 13:00:00,
2013-02-24 05:03:00,31.9,15.8,30.20,NNW,348,0.0,5.0,51,0.00,,,0.00,VWS V14.01,2013-02-24 13:03:00,
2013-02-24 05:08:00,33.4,15.4,30.20,North,9,0.0,6.0,47,0.00,,,0.00,VWS V14.01,2013-02-24 13:08:00,
2013-02-24 05:12:00,34.4,15.8,30.20,NE,39,0.0,6.0,46,0.00,,,0.00,VWS V14.01,2013-02-24 13:12:00,
2013-02-24 05:18:00,34.4,18.2,30.20,NE,39,0.0,6.0,51,0.00,,,0.00,VWS V14.01,2013-02-24 13:18:00,
2013-02-24 05:23:00,33.7,17.5,30.20,NE,39,0.0,6.0,51,0.00,,,0.00,VWS V14.01,2013-02-24 13:23:00,
2013-02-24 05:28:00,32.9,16.8,30.20,NNE,26,0.0,6.0,51,0.00,,,0.00,VWS V14.01,2013-02-24 13:28:00,
2013-02-24 05:30:00,33.0,15.9,30.20,North,5,0.0,6.0,49,0.00,,,0.00,VWS V14.01,2013-02-24 13:30:00,
2013-02-24 05:33:00,33.3,15.7,30.20,North,355,0.0,4.0,48,0.00,,,0.00,VWS V14.01,2013-02-24 13:33:00,
2013-02-24 05:38:00,34.0,15.4,30.20,North,355,0.0,4.0,46,0.00,,,0.00,VWS V14.01,2013-02-24 13:38:00,
2013-02-24 05:43:00,34.4,15.8,30.20,NE,37,0.0,5.0,46,0.00,,,0.00,VWS V14.01,2013-02-24 13:43:00,
2013-02-24 05:48:00,34.4,16.8,30.20,NE,37,0.0,5.0,48,0.00,,,0.00,VWS V14.01,2013-02-24 13:48:00,
2013-02-24 05:53:00,33.6,17.4,30.20,NE,37,0.0,5.0,51,0.00,,,0.00,VWS V14.01,2013-02-24 13:53:00,
2013-02-24 05:58:00,32.7,16.1,30.20,NNE,27,2.0,6.0,50,0.00,,,0.00,VWS V14.01,2013-02-24 13:58:00,
2013-02-24 06:00:00,32.7,16.1,30.20,NNE,20,3.0,6.0,50,0.00,,,0.00,VWS V14.01,2013-02-24 14:00:00,
2013-02-24 06:03:00,32.9,15.9,30.20,NE,35,0.0,4.0,49,0.00,,,0.00,VWS V14.01,2013-02-24 14:03:00,
2013-02-24 06:08:00,33.4,15.8,30.20,NNE,24,0.0,5.0,48,0.00,,,0.00,VWS V14.01,2013-02-24 14:08:00,
2013-02-24 06:13:00,33.7,15.6,30.20,North,5,0.0,6.0,47,0.00,,,0.00,VWS V14.01,2013-02-24 14:13:00,
2013-02-24 06:18:00,34.0,15.9,30.20,North,360,0.0,6.0,47,0.00,,,0.00,VWS V14.01,2013-02-24 14:18:00,
2013-02-24 06:23:00,34.3,15.7,30.21,NNE,21,1.0,6.0,46,0.00,,,0.00,VWS V14.01,2013-02-24 14:23:00,
2013-02-24 06:28:00,34.4,15.8,30.21,NE,37,0.0,6.0,46,0.00,,,0.00,VWS V14.01,2013-02-24 14:28:00,
2013-02-24 06:30:00,34.4,16.3,30.21,NE,37,0.0,6.0,47,0.00,,,0.00,VWS V14.01,2013-02-24 14:30:00,
2013-02-24 06:33:00,34.1,17.4,30.21,NNE,28,0.0,2.0,50,0.00,,,0.00,VWS V14.01,2013-02-24 14:33:00,
2013-02-24 06:38:00,33.4,17.2,30.22,NNE,28,0.0,2.0,51,0.00,,,0.00,VWS V14.01,2013-02-24 14:38:00,
2013-02-24 06:43:00,32.8,16.2,30.21,NE,38,3.0,6.0,50,0.00,,,0.00,VWS V14.01,2013-02-24 14:43:00,
2013-02-24 06:48:00,33.4,15.8,30.21,NE,48,7.0,7.0,48,0.00,,,0.00,VWS V14.01,2013-02-24 14:48:00,
2013-02-24 06:53:00,34.1,16.0,30.21,NE,34,0.0,7.0,47,0.00,,,0.00,VWS V14.01,2013-02-24 14:53:00,
2013-02-24 06:58:00,33.6,18.3,30.21,NE,35,0.0,7.0,53,0.00,,,0.00,VWS V14.01,2013-02-24 14:58:00,
2013-02-24 07:00:00,33.0,17.8,30.21,NE,35,0.0,7.0,53,0.00,,,0.00,VWS V14.01,2013-02-24 15:00:00,
2013-02-24 07:03:00,32.6,17.8,30.21,NE,35,0.0,0.0,54,0.00,,,0.00,VWS V14.01,2013-02-24 15:03:00,
2013-02-24 07:08:00,31.7,17.8,30.21,NE,34,0.0,0.0,56,0.00,,,0.00,VWS V14.01,2013-02-24 15:08:00,
2013-02-24 07:13:00,31.2,17.8,30.22,NE,34,0.0,3.0,57,0.00,,,0.00,VWS V14.01,2013-02-24 15:13:00,
2013-02-24 07:18:00,31.0,16.7,30.22,NNE,22,0.0,6.0,55,0.00,,,0.00,VWS V14.01,2013-02-24 15:18:00,
2013-02-24 07:23:00,31.6,17.7,30.22,NNE,32,1.0,6.0,56,0.00,,,0.00,VWS V14.01,2013-02-24 15:23:00,
2013-02-24 07:28:00,32.6,15.6,30.22,NE,41,6.0,7.0,49,0.00,,,0.00,VWS V14.01,2013-02-24 15:28:00,
2013-02-24 07:30:00,34.3,16.2,30.22,NNE,32,2.0,11.0,47,0.00,,,0.00,VWS V14.01,2013-02-24 15:30:00,
2013-02-24 07:33:00,35.4,15.7,30.22,NNE,33,0.0,10.0,44,0.00,,,0.00,VWS V14.01,2013-02-24 15:33:00,
2013-02-24 07:38:00,37.1,15.6,30.22,NE,38,0.0,10.0,41,0.00,,,0.00,VWS V14.01,2013-02-24 15:38:00,
2013-02-24 07:43:00,37.8,16.8,30.22,NE,42,3.0,11.0,42,0.00,,,0.00,VWS V14.01,2013-02-24 15:43:00,
2013-02-24 07:48:00,38.5,16.3,30.22,NNE,30,0.0,11.0,40,0.00,,,0.00,VWS V14.01,2013-02-24 15:48:00,
2013-02-24 07:53:00,39.2,15.7,30.22,NE,39,0.0,11.0,38,0.00,,,0.00,VWS V14.01,2013-02-24 15:53:00,
2013-02-24 07:58:00,39.7,15.6,30.22,NNE,33,0.0,11.0,37,0.00,,,0.00,VWS V14.01,2013-02-24 15:58:00,
2013-02-24 08:00:00,39.9,15.8,30.22,NE,34,8.0,11.0,37,0.00,,,0.00,VWS V14.01,2013-02-24 16:00:00,
2013-02-24 08:04:00,40.1,15.9,30.22,NNE,23,2.0,8.0,37,0.00,,,0.00,VWS V14.01,2013-02-24 16:04:00,
2013-02-24 08:09:00,40.5,16.3,30.22,NE,36,5.0,10.0,37,0.00,,,0.00,VWS V14.01,2013-02-24 16:09:00,
2013-02-24 08:14:00,41.0,17.4,30.22,NE,36,6.0,10.0,38,0.00,,,0.00,VWS V14.01,2013-02-24 16:14:00,
2013-02-24 08:19:00,41.3,15.7,30.22,NNE,29,0.0,10.0,35,0.00,,,0.00,VWS V14.01,2013-02-24 16:19:00,
2013-02-24 08:24:00,41.8,16.2,30.23,NNE,22,2.0,10.0,35,0.00,,,0.00,VWS V14.01,2013-02-24 16:24:00,
2013-02-24 08:29:00,42.4,16.0,30.22,NNE,33,0.0,10.0,34,0.00,,,0.00,VWS V14.01,2013-02-24 16:29:00,
2013-02-24 08:30:00,42.6,16.2,30.23,NE,36,6.0,10.0,34,0.00,,,0.00,VWS V14.01,2013-02-24 16:30:00,
2013-02-24 08:34:00,42.8,16.4,30.23,NNW,338,2.0,7.0,34,0.00,,,0.00,VWS V14.01,2013-02-24 16:34:00,
2013-02-24 08:39:00,43.1,15.3,30.23,North,351,2.0,7.0,32,0.00,,,0.00,VWS V14.01,2013-02-24 16:39:00,
2013-02-24 08:44:00,42.9,15.8,30.23,NE,38,3.0,9.0,33,0.00,,,0.00,VWS V14.01,2013-02-24 16:44:00,
2013-02-24 08:49:00,42.9,15.8,30.23,NNW,334,3.0,9.0,33,0.00,,,0.00,VWS V14.01,2013-02-24 16:49:00,
2013-02-24 08:54:00,43.5,16.3,30.23,NNW,343,5.0,9.0,33,0.00,,,0.00,VWS V14.01,2013-02-24 16:54:00,
2013-02-24 08:59:00,43.8,15.9,30.23,NNE,21,0.0,11.0,32,0.00,,,0.00,VWS V14.01,2013-02-24 16:59:00,
2013-02-24 09:00:00,44.0,16.8,30.23,North,5,0.0,11.0,33,0.00,,,0.00,VWS V14.01,2013-02-24 17:00:00,
2013-02-24 09:04:00,44.3,17.0,30.23,North,11,0.0,5.0,33,0.00,,,0.00,VWS V14.01,2013-02-24 17:04:00,
2013-02-24 09:09:00,44.7,16.7,30.23,NE,34,1.0,6.0,32,0.00,,,0.00,VWS V14.01,2013-02-24 17:09:00,
2013-02-24 09:14:00,45.3,16.5,30.23,North,11,0.0,6.0,31,0.00,,,0.00,VWS V14.01,2013-02-24 17:14:00,
2013-02-24 09:19:00,45.9,17.0,30.24,North,355,0.0,6.0,31,0.00,,,0.00,VWS V14.01,2013-02-24 17:19:00,
2013-02-24 09:24:00,46.5,16.8,30.24,NNE,17,2.0,7.0,30,0.00,,,0.00,VWS V14.01,2013-02-24 17:24:00,
2013-02-24 09:29:00,46.7,16.9,30.24,NNE,17,2.0,10.0,30,0.00,,,0.00,VWS V14.01,2013-02-24 17:29:00,
2013-02-24 09:30:00,46.8,17.8,30.24,NNE,21,1.0,10.0,31,0.00,,,0.00,VWS V14.01,2013-02-24 17:30:00,
2013-02-24 09:34:00,47.0,17.2,30.24,NNE,29,0.0,10.0,30,0.00,,,0.00,VWS V14.01,2013-02-24 17:34:00,
2013-02-24 09:39:00,47.4,17.5,30.24,North,10,2.0,10.0,30,0.00,,,0.00,VWS V14.01,2013-02-24 17:39:00,
2013-02-24 09:44:00,47.9,17.2,30.24,NNE,30,5.0,10.0,29,0.00,,,0.00,VWS V14.01,2013-02-24 17:44:00,
2013-02-24 09:49:00,48.6,17.8,30.24,NNE,22,3.0,10.0,29,0.00,,,0.00,VWS V14.01,2013-02-24 17:49:00,
2013-02-24 09:54:00,49.2,18.3,30.24,NNW,344,2.0,10.0,29,0.00,,,0.00,VWS V14.01,2013-02-24 17:54:00,
2013-02-24 09:59:00,49.7,18.8,30.24,NNE,24,11.0,11.0,29,0.00,,,0.00,VWS V14.01,2013-02-24 17:59:00,
2013-02-24 10:00:00,49.8,18.0,30.24,North,360,1.0,11.0,28,0.00,,,0.00,VWS V14.01,2013-02-24 18:00:00,
2013-02-24 10:04:00,49.5,17.8,30.24,NNW,327,0.0,7.0,28,0.00,,,0.00,VWS V14.01,2013-02-24 18:04:00,
2013-02-24 10:09:00,49.6,17.0,30.24,NE,38,0.0,7.0,27,0.00,,,0.00,VWS V14.01,2013-02-24 18:09:00,
2013-02-24 10:14:00,49.2,16.7,30.24,NE,42,0.0,9.0,27,0.00,,,0.00,VWS V14.01,2013-02-24 18:14:00,
2013-02-24 10:19:00,50.2,17.5,30.24,NNE,31,0.0,9.0,27,0.00,,,0.00,VWS V14.01,2013-02-24 18:19:00,
2013-02-24 10:24:00,50.6,15.2,30.24,North,355,0.0,9.0,24,0.00,,,0.00,VWS V14.01,2013-02-24 18:24:00,
2013-02-24 10:29:00,51.2,16.6,30.24,NW,326,0.0,9.0,25,0.00,,,0.00,VWS V14.01,2013-02-24 18:29:00,
2013-02-24 10:30:00,51.6,17.9,30.24,NNW,328,0.0,9.0,26,0.00,,,0.00,VWS V14.01,2013-02-24 18:30:00,
2013-02-24 10:34:00,52.2,15.5,30.24,NNE,25,1.0,6.0,23,0.00,,,0.00,VWS V14.01,2013-02-24 18:34:00,
2013-02-24 10:39:00,52.9,17.1,30.24,NNE,19,0.0,6.0,24,0.00,,,0.00,VWS V14.01,2013-02-24 18:39:00,
2013-02-24 10:44:00,54.4,16.4,30.24,NNE,19,0.0,6.0,22,0.00,,,0.00,VWS V14.01,2013-02-24 18:44:00,
2013-02-24 10:49:00,55.0,16.9,30.24,NNW,343,1.0,6.0,22,0.00,,,0.00,VWS V14.01,2013-02-24 18:49:00,
2013-02-24 10:54:00,54.8,17.7,30.24,NW,326,3.0,6.0,23,0.00,,,0.00,VWS V14.01,2013-02-24 18:54:00,
2013-02-24 10:59:00,54.4,17.4,30.24,WNW,284,0.0,6.0,23,0.00,,,0.00,VWS V14.01,2013-02-24 18:59:00,
2013-02-24 11:00:00,54.1,17.1,30.24,NE,46,4.0,6.0,23,0.00,,,0.00,VWS V14.01,2013-02-24 19:00:00,
2013-02-24 11:04:00,54.2,16.2,30.24,NNE,33,0.0,6.0,22,0.00,,,0.00,VWS V14.01,2013-02-24 19:04:00,
2013-02-24 11:09:00,54.8,15.6,30.24,NNE,26,3.0,6.0,21,0.00,,,0.00,VWS V14.01,2013-02-24 19:09:00,
2013-02-24 11:14:00,54.9,16.8,30.24,WNW,301,0.0,6.0,22,0.00,,,0.00,VWS V14.01,2013-02-24 19:14:00,
2013-02-24 11:19:00,54.8,14.5,30.24,NW,318,1.0,6.0,20,0.00,,,0.00,VWS V14.01,2013-02-24 19:19:00,
2013-02-24 11:24:00,54.6,14.4,30.24,West,275,5.0,6.0,20,0.00,,,0.00,VWS V14.01,2013-02-24 19:24:00,
2013-02-24 11:29:00,55.0,14.7,30.23,NW,310,0.0,6.0,20,0.00,,,0.00,VWS V14.01,2013-02-24 19:29:00,
2013-02-24 11:30:00,55.1,13.6,30.24,NNE,15,2.0,6.0,19,0.00,,,0.00,VWS V14.01,2013-02-24 19:30:00,
2013-02-24 11:34:00,55.4,13.9,30.24,North,355,0.0,7.0,19,0.00,,,0.00,VWS V14.01,2013-02-24 19:34:00,
2013-02-24 11:39:00,55.6,14.0,30.24,NNW,346,1.0,7.0,19,0.00,,,0.00,VWS V14.01,2013-02-24 19:39:00,
2013-02-24 11:44:00,55.6,15.2,30.24,West,277,0.0,7.0,20,0.00,,,0.00,VWS V14.01,2013-02-24 19:44:00,
2013-02-24 11:49:00,55.8,15.4,30.23,NW,323,0.0,7.0,20,0.00,,,0.00,VWS V14.01,2013-02-24 19:49:00,
2013-02-24 11:54:00,56.7,16.1,30.24,NE,37,0.0,7.0,20,0.00,,,0.00,VWS V14.01,2013-02-24 19:54:00,
2013-02-24 11:59:00,57.1,14.0,30.23,NNE,13,5.0,7.0,18,0.00,,,0.00,VWS V14.01,2013-02-24 19:59:00,
2013-02-24 12:00:00,57.0,12.6,30.23,NE,37,2.0,7.0,17,0.00,,,0.00,VWS V14.01,2013-02-24 20:00:00,
2013-02-24 12:04:00,56.8,13.8,30.23,NNW,340,1.0,3.0,18,0.00,,,0.00,VWS V14.01,2013-02-24 20:04:00,
2013-02-24 12:09:00,56.5,14.8,30.23,NNW,341,0.0,5.0,19,0.00,,,0.00,VWS V14.01,2013-02-24 20:09:00,
2013-02-24 12:14:00,56.7,13.7,30.23,SW,234,2.0,6.0,18,0.00,,,0.00,VWS V14.01,2013-02-24 20:14:00,
2013-02-24 12:19:00,56.5,13.5,30.22,NNW,336,1.0,6.0,18,0.00,,,0.00,VWS V14.01,2013-02-24 20:19:00,
2013-02-24 12:24:00,56.8,15.0,30.22,WNW,300,0.0,6.0,19,0.00,,,0.00,VWS V14.01,2013-02-24 20:24:00,
2013-02-24 12:29:00,57.7,15.8,30.22,NE,39,7.0,7.0,19,0.00,,,0.00,VWS V14.01,2013-02-24 20:29:00,
2013-02-24 12:30:00,57.8,15.8,30.22,NE,36,4.0,7.0,19,0.00,,,0.00,VWS V14.01,2013-02-24 20:30:00,
2013-02-24 12:34:00,57.6,15.7,30.21,NNW,331,0.0,6.0,19,0.00,,,0.00,VWS V14.01,2013-02-24 20:34:00,
2013-02-24 12:39:00,57.6,15.7,30.21,NNW,332,1.0,9.0,19,0.00,,,0.00,VWS V14.01,2013-02-24 20:39:00,
2013-02-24 12:44:00,58.1,16.1,30.21,NE,39,1.0,9.0,19,0.00,,,0.00,VWS V14.01,2013-02-24 20:44:00,
2013-02-24 12:49:00,58.7,16.6,30.20,NW,318,0.0,9.0,19,0.00,,,0.00,VWS V14.01,2013-02-24 20:49:00,
2013-02-24 12:54:00,59.3,15.8,30.20,North,350,2.0,9.0,18,0.00,,,0.00,VWS V14.01,2013-02-24 20:54:00,
2013-02-24 12:59:00,59.5,16.0,30.20,ENE,60,0.0,9.0,18,0.00,,,0.00,VWS V14.01,2013-02-24 20:59:00,
2013-02-24 13:00:00,59.6,16.1,30.20,NE,34,3.0,9.0,18,0.00,,,0.00,VWS V14.01,2013-02-24 21:00:00,
2013-02-24 13:04:00,59.3,14.5,30.20,West,265,0.0,5.0,17,0.00,,,0.00,VWS V14.01,2013-02-24 21:04:00,
2013-02-24 13:09:00,58.8,15.4,30.20,WNW,285,3.0,5.0,18,0.00,,,0.00,VWS V14.01,2013-02-24 21:09:00,
2013-02-24 13:14:00,59.0,15.6,30.20,West,279,2.0,6.0,18,0.00,,,0.00,VWS V14.01,2013-02-24 21:14:00,
2013-02-24 13:19:00,58.6,13.9,30.19,WNW,295,0.0,6.0,17,0.00,,,0.00,VWS V14.01,2013-02-24 21:19:00,
2013-02-24 13:24:00,58.4,15.1,30.19,NW,306,0.0,6.0,18,0.00,,,0.00,VWS V14.01,2013-02-24 21:24:00,
2013-02-24 13:29:00,58.4,15.1,30.19,NNW,331,4.0,7.0,18,0.00,,,0.00,VWS V14.01,2013-02-24 21:29:00,
2013-02-24 13:30:00,58.4,15.1,30.19,North,360,2.0,7.0,18,0.00,,,0.00,VWS V14.01,2013-02-24 21:30:00,
2013-02-24 13:35:00,58.2,14.9,30.19,WNW,285,1.0,5.0,18,0.00,,,0.00,VWS V14.01,2013-02-24 21:35:00,
2013-02-24 13:40:00,57.6,16.9,30.19,SW,231,0.0,9.0,20,0.00,,,0.00,VWS V14.01,2013-02-24 21:40:00,
2013-02-24 13:45:00,57.8,17.0,30.19,WSW,237,0.0,9.0,20,0.00,,,0.00,VWS V14.01,2013-02-24 21:45:00,
2013-02-24 13:50:00,58.3,17.4,30.18,WSW,237,0.0,9.0,20,0.00,,,0.00,VWS V14.01,2013-02-24 21:50:00,
2013-02-24 13:55:00,59.1,15.7,30.18,NNW,333,0.0,9.0,18,0.00,,,0.00,VWS V14.01,2013-02-24 21:55:00,
2013-02-24 14:00:00,59.3,18.3,30.18,West,269,0.0,9.0,20,0.00,,,0.00,VWS V14.01,2013-02-24 22:00:00,
2013-02-24 14:05:00,59.8,18.7,30.18,NNW,329,5.0,5.0,20,0.00,,,0.00,VWS V14.01,2013-02-24 22:05:00,
2013-02-24 14:10:00,60.3,22.4,30.18,WNW,298,0.0,5.0,23,0.00,,,0.00,VWS V14.01,2013-02-24 22:10:00,
2013-02-24 14:15:00,60.5,21.5,30.17,NW,311,0.0,5.0,22,0.00,,,0.00,VWS V14.01,2013-02-24 22:15:00,
2013-02-24 14:20:00,60.5,21.5,30.17,North,355,1.0,5.0,22,0.00,,,0.00,VWS V14.01,2013-02-24 22:20:00,
2013-02-24 14:25:00,60.0,21.1,30.17,WNW,285,0.0,6.0,22,0.00,,,0.00,VWS V14.01,2013-02-24 22:25:00,
2013-02-24 14:30:00,60.0,22.1,30.17,North,10,0.0,6.0,23,0.00,,,0.00,VWS V14.01,2013-02-24 22:30:00,
2013-02-24 14:35:00,60.4,20.3,30.17,NW,306,0.0,5.0,21,0.00,,,0.00,VWS V14.01,2013-02-24 22:35:00,
2013-02-24 14:40:00,60.7,20.6,30.17,NE,34,7.0,7.0,21,0.00,,,0.00,VWS V14.01,2013-02-24 22:40:00,
2013-02-24 14:45:00,61.0,20.8,30.17,West,262,2.0,7.0,21,0.00,,,0.00,VWS V14.01,2013-02-24 22:45:00,
2013-02-24 14:50:00,60.5,20.4,30.17,NNE,14,4.0,10.0,21,0.00,,,0.00,VWS V14.01,2013-02-24 22:50:00,
2013-02-24 14:55:00,60.2,21.2,30.17,NNW,340,1.0,10.0,22,0.00,,,0.00,VWS V14.01,2013-02-24 22:55:00,
2013-02-24 15:00:00,60.4,22.5,30.17,WSW,258,3.0,10.0,23,0.00,,,0.00,VWS V14.01,2013-02-24 23:00:00,
2013-02-24 15:05:00,60.5,22.5,30.17,NNW,335,0.0,9.0,23,0.00,,,0.00,VWS V14.01,2013-02-24 23:05:00,
2013-02-24 15:10:00,60.4,22.5,30.17,WNW,300,0.0,9.0,23,0.00,,,0.00,VWS V14.01,2013-02-24 23:10:00,
2013-02-24 15:15:00,59.9,23.0,30.17,NNE,24,2.0,9.0,24,0.00,,,0.00,VWS V14.01,2013-02-24 23:15:00,
2013-02-24 15:20:00,59.4,22.6,30.17,West,275,1.0,9.0,24,0.00,,,0.00,VWS V14.01,2013-02-24 23:20:00,
2013-02-24 15:25:00,59.0,24.2,30.17,SSW,211,0.0,9.0,26,0.00,,,0.00,VWS V14.01,2013-02-24 23:25:00,
2013-02-24 15:30:00,59.0,24.2,30.17,WNW,297,0.0,9.0,26,0.00,,,0.00,VWS V14.01,2013-02-24 23:30:00,
2013-02-24 15:35:00,58.3,24.5,30.17,NW,304,0.0,6.0,27,0.00,,,0.00,VWS V14.01,2013-02-24 23:35:00,
2013-02-24 15:40:00,58.1,23.4,30.17,SW,219,0.0,7.0,26,0.00,,,0.00,VWS V14.01,2013-02-24 23:40:00,
2013-02-24 15:45:00,57.6,23.9,30.17,SW,219,0.0,8.0,27,0.00,,,0.00,VWS V14.01,2013-02-24 23:45:00,
2013-02-24 15:50:00,58.0,24.2,30.17,SW,227,0.0,8.0,27,0.00,,,0.00,VWS V14.01,2013-02-24 23:50:00,
2013-02-24 15:55:00,58.6,23.8,30.17,West,261,0.0,8.0,26,0.00,,,0.00,VWS V14.01,2013-02-24 23:55:00,
2013-02-24 16:00:00,58.0,24.2,30.17,NW,307,0.0,8.0,27,0.00,,,0.00,VWS V14.01,2013-02-25 00:00:00,
2013-02-24 16:05:00,57.5,23.8,30.17,WNW,294,4.0,7.0,27,0.00,,,0.00,VWS V14.01,2013-02-25 00:05:00,
2013-02-24 16:10:00,56.9,24.1,30.17,West,281,2.0,9.0,28,0.00,,,0.00,VWS V14.01,2013-02-25 00:10:00,
2013-02-24 16:15:00,56.5,24.6,30.17,West,277,4.0,9.0,29,0.00,,,0.00,VWS V14.01,2013-02-25 00:15:00,
2013-02-24 16:20:00,56.6,25.5,30.17,SW,230,0.0,9.0,30,0.00,,,0.00,VWS V14.01,2013-02-25 00:20:00,
2013-02-24 16:25:00,56.7,25.6,30.17,SSW,200,3.0,9.0,30,0.00,,,0.00,VWS V14.01,2013-02-25 00:25:00,
2013-02-24 16:30:00,56.2,25.2,30.17,SSE,156,0.0,9.0,30,0.00,,,0.00,VWS V14.01,2013-02-25 00:30:00,
2013-02-24 16:35:00,56.3,26.1,30.17,SE,126,0.0,7.0,31,0.00,,,0.00,VWS V14.01,2013-02-25 00:35:00,
2013-02-24 16:40:00,56.4,25.4,30.18,SW,229,1.0,7.0,30,0.00,,,0.00,VWS V14.01,2013-02-25 00:40:00,
2013-02-24 16:45:00,55.9,24.1,30.18,WSW,239,3.0,7.0,29,0.00,,,0.00,VWS V14.01,2013-02-25 00:45:00,
2013-02-24 16:50:00,55.5,23.8,30.18,WSW,239,1.0,7.0,29,0.00,,,0.00,VWS V14.01,2013-02-25 00:50:00,
2013-02-24 16:55:00,55.4,24.5,30.18,WSW,240,0.0,7.0,30,0.00,,,0.00,VWS V14.01,2013-02-25 00:55:00,
2013-02-24 17:00:00,55.4,23.7,30.18,WSW,242,1.0,7.0,29,0.00,,,0.00,VWS V14.01,2013-02-25 01:00:00,
2013-02-24 17:05:00,54.6,23.8,30.18,West,267,0.0,3.0,30,0.00,,,0.00,VWS V14.01,2013-02-25 01:05:00,
2013-02-24 17:10:00,53.9,24.0,30.18,SW,214,0.0,3.0,31,0.00,,,0.00,VWS V14.01,2013-02-25 01:10:00,
2013-02-24 17:15:00,53.4,23.5,30.18,SW,215,0.0,3.0,31,0.00,,,0.00,VWS V14.01,2013-02-25 01:15:00,
2013-02-24 17:20:00,53.1,24.0,30.18,SW,215,0.0,3.0,32,0.00,,,0.00,VWS V14.01,2013-02-25 01:20:00,
2013-02-24 17:25:00,52.7,24.4,30.18,SW,214,0.0,3.0,33,0.00,,,0.00,VWS V14.01,2013-02-25 01:25:00,
2013-02-24 17:30:00,52.1,24.6,30.18,WSW,251,0.0,3.0,34,0.00,,,0.00,VWS V14.01,2013-02-25 01:30:00,
2013-02-24 17:35:00,51.6,24.9,30.19,WSW,250,0.0,1.0,35,0.00,,,0.00,VWS V14.01,2013-02-25 01:35:00,
2013-02-24 17:40:00,51.2,24.5,30.19,WSW,251,0.0,1.0,35,0.00,,,0.00,VWS V14.01,2013-02-25 01:40:00,
2013-02-24 17:45:00,50.7,25.4,30.19,WSW,250,0.0,1.0,37,0.00,,,0.00,VWS V14.01,2013-02-25 01:45:00,
2013-02-24 17:50:00,50.0,25.4,30.19,WSW,251,0.0,1.0,38,0.00,,,0.00,VWS V14.01,2013-02-25 01:50:00,
2013-02-24 17:55:00,49.5,25.6,30.19,WSW,251,0.0,1.0,39,0.00,,,0.00,VWS V14.01,2013-02-25 01:55:00,
2013-02-24 18:00:00,49.0,25.8,30.19,WSW,251,0.0,1.0,40,0.00,,,0.00,VWS V14.01,2013-02-25 02:00:00,
2013-02-24 18:05:00,48.4,25.2,30.19,WSW,251,0.0,0.0,40,0.00,,,0.00,VWS V14.01,2013-02-25 02:05:00,
2013-02-24 18:10:00,47.8,26.4,30.19,WSW,251,0.0,0.0,43,0.00,,,0.00,VWS V14.01,2013-02-25 02:10:00,
2013-02-24 18:15:00,47.3,26.0,30.19,WSW,251,0.0,0.0,43,0.00,,,0.00,VWS V14.01,2013-02-25 02:15:00,
2013-02-24 18:20:00,46.9,26.1,30.19,WSW,250,0.0,0.0,44,0.00,,,0.00,VWS V14.01,2013-02-25 02:20:00,
2013-02-24 18:25:00,46.3,26.7,30.19,WSW,250,0.0,0.0,46,0.00,,,0.00,VWS V14.01,2013-02-25 02:25:00,
2013-02-24 18:30:00,45.8,26.7,30.19,WSW,251,0.0,0.0,47,0.00,,,0.00,VWS V14.01,2013-02-25 02:30:00,
2013-02-24 18:35:00,45.3,27.3,30.19,WSW,251,0.0,0.0,49,0.00,,,0.00,VWS V14.01,2013-02-25 02:35:00,
2013-02-24 18:40:00,44.9,27.4,30.19,WSW,250,0.0,0.0,50,0.00,,,0.00,VWS V14.01,2013-02-25 02:40:00,
2013-02-24 18:45:00,44.7,27.2,30.19,WSW,251,0.0,0.0,50,0.00,,,0.00,VWS V14.01,2013-02-25 02:45:00,
2013-02-24 18:50:00,44.4,26.5,30.19,WSW,251,0.0,0.0,49,0.00,,,0.00,VWS V14.01,2013-02-25 02:50:00,
2013-02-24 18:55:00,43.9,27.0,30.19,WSW,251,0.0,0.0,51,0.00,,,0.00,VWS V14.01,2013-02-25 02:55:00,
2013-02-24 19:00:00,43.5,27.1,30.19,WSW,250,0.0,0.0,52,0.00,,,0.00,VWS V14.01,2013-02-25 03:00:00,
2013-02-24 19:05:00,43.1,27.1,30.19,WSW,251,0.0,0.0,53,0.00,,,0.00,VWS V14.01,2013-02-25 03:05:00,
2013-02-24 19:10:00,42.6,26.7,30.19,WSW,251,0.0,0.0,53,0.00,,,0.00,VWS V14.01,2013-02-25 03:10:00,
2013-02-24 19:15:00,42.3,26.9,30.19,WSW,251,0.0,0.0,54,0.00,,,0.00,VWS V14.01,2013-02-25 03:15:00,
2013-02-24 19:20:00,42.0,26.6,30.19,WSW,250,0.0,0.0,54,0.00,,,0.00,VWS V14.01,2013-02-25 03:20:00,
2013-02-24 19:25:00,41.8,26.4,30.19,WSW,251,0.0,0.0,54,0.00,,,0.00,VWS V14.01,2013-02-25 03:25:00,
2013-02-24 19:30:00,41.5,26.1,30.19,WSW,251,0.0,0.0,54,0.00,,,0.00,VWS V14.01,2013-02-25 03:30:00,
2013-02-24 19:35:00,41.1,26.2,30.19,WSW,251,0.0,0.0,55,0.00,,,0.00,VWS V14.01,2013-02-25 03:35:00,
2013-02-24 19:40:00,40.9,26.4,30.19,WSW,251,0.0,0.0,56,0.00,,,0.00,VWS V14.01,2013-02-25 03:40:00,
2013-02-24 19:45:00,40.6,26.1,30.19,WSW,251,0.0,0.0,56,0.00,,,0.00,VWS V14.01,2013-02-25 03:45:00,
2013-02-24 19:50:00,40.3,26.7,30.20,WSW,251,0.0,0.0,58,0.00,,,0.00,VWS V14.01,2013-02-25 03:50:00,
2013-02-24 19:55:00,40.0,26.4,30.20,WSW,250,0.0,0.0,58,0.00,,,0.00,VWS V14.01,2013-02-25 03:55:00,
2013-02-24 20:00:00,39.8,26.2,30.20,WSW,251,0.0,0.0,58,0.00,,,0.00,VWS V14.01,2013-02-25 04:00:00,
2013-02-24 20:05:00,39.5,26.4,30.20,West,275,0.0,1.0,59,0.00,,,0.00,VWS V14.01,2013-02-25 04:05:00,
2013-02-24 20:10:00,39.3,26.2,30.20,West,275,0.0,1.0,59,0.00,,,0.00,VWS V14.01,2013-02-25 04:10:00,
2013-02-24 20:15:00,39.1,26.4,30.20,West,275,0.0,1.0,60,0.00,,,0.00,VWS V14.01,2013-02-25 04:15:00,
2013-02-24 20:20:00,38.8,26.1,30.20,West,275,0.0,1.0,60,0.00,,,0.00,VWS V14.01,2013-02-25 04:20:00,
2013-02-24 20:25:00,38.6,26.3,30.20,West,275,0.0,1.0,61,0.00,,,0.00,VWS V14.01,2013-02-25 04:25:00,
2013-02-24 20:30:00,38.3,26.4,30.20,West,275,0.0,1.0,62,0.00,,,0.00,VWS V14.01,2013-02-25 04:30:00,
2013-02-24 20:35:00,38.0,26.1,30.20,West,275,0.0,0.0,62,0.00,,,0.00,VWS V14.01,2013-02-25 04:35:00,
2013-02-24 20:40:00,37.9,26.1,30.20,West,275,0.0,0.0,62,0.00,,,0.00,VWS V14.01,2013-02-25 04:40:00,
2013-02-24 20:45:00,37.7,25.9,30.20,West,275,0.0,0.0,62,0.00,,,0.00,VWS V14.01,2013-02-25 04:45:00,
2013-02-24 20:51:00,37.5,26.1,30.20,West,275,0.0,0.0,63,0.00,,,0.00,VWS V14.01,2013-02-25 04:51:00,
2013-02-24 20:56:00,37.5,26.1,30.20,West,275,0.0,0.0,63,0.00,,,0.00,VWS V14.01,2013-02-25 04:56:00,
2013-02-24 21:00:00,37.3,26.3,30.20,West,275,0.0,0.0,64,0.00,,,0.00,VWS V14.01,2013-02-25 05:00:00,
2013-02-24 21:05:00,37.0,26.3,30.21,West,275,0.0,0.0,65,0.00,,,0.00,VWS V14.01,2013-02-25 05:05:00,
2013-02-24 21:10:00,36.8,26.1,30.21,West,275,0.0,0.0,65,0.00,,,0.00,VWS V14.01,2013-02-25 05:10:00,
2013-02-24 21:15:00,36.7,26.1,30.21,West,275,0.0,0.0,65,0.00,,,0.00,VWS V14.01,2013-02-25 05:15:00,
2013-02-24 21:20:00,36.5,26.2,30.21,West,275,0.0,0.0,66,0.00,,,0.00,VWS V14.01,2013-02-25 05:20:00,
2013-02-24 21:25:00,36.3,26.0,30.22,West,275,0.0,0.0,66,0.00,,,0.00,VWS V14.01,2013-02-25 05:25:00,
2013-02-24 21:30:00,36.1,25.9,30.22,West,275,0.0,0.0,66,0.00,,,0.00,VWS V14.01,2013-02-25 05:30:00,
2013-02-24 21:35:00,35.9,26.0,30.22,West,275,0.0,0.0,67,0.00,,,0.00,VWS V14.01,2013-02-25 05:35:00,
2013-02-24 21:40:00,35.6,25.7,30.22,West,275,0.0,0.0,67,0.00,,,0.00,VWS V14.01,2013-02-25 05:40:00,
2013-02-24 21:45:00,35.4,25.5,30.22,West,275,0.0,0.0,67,0.00,,,0.00,VWS V14.01,2013-02-25 05:45:00,
2013-02-24 21:50:00,35.3,25.5,30.22,West,275,0.0,0.0,67,0.00,,,0.00,VWS V14.01,2013-02-25 05:50:00,
2013-02-24 21:55:00,35.3,25.5,30.22,West,275,0.0,0.0,67,0.00,,,0.00,VWS V14.01,2013-02-25 05:55:00,
2013-02-24 22:00:00,35.2,25.4,30.23,West,275,0.0,0.0,67,0.00,,,0.00,VWS V14.01,2013-02-25 06:00:00,
2013-02-24 22:05:00,35.0,25.5,30.23,West,275,0.0,0.0,68,0.00,,,0.00,VWS V14.01,2013-02-25 06:05:00,
2013-02-24 22:10:00,34.8,25.3,30.23,West,275,0.0,0.0,68,0.00,,,0.00,VWS V14.01,2013-02-25 06:10:00,
2013-02-24 22:15:00,34.6,25.1,30.23,West,275,0.0,0.0,68,0.00,,,0.00,VWS V14.01,2013-02-25 06:15:00,
2013-02-24 22:20:00,34.4,25.0,30.24,West,275,0.0,0.0,68,0.00,,,0.00,VWS V14.01,2013-02-25 06:20:00,
2013-02-24 22:25:00,34.4,25.3,30.24,West,275,0.0,0.0,69,0.00,,,0.00,VWS V14.01,2013-02-25 06:25:00,
2013-02-24 22:30:00,34.4,25.3,30.23,West,275,0.0,0.0,69,0.00,,,0.00,VWS V14.01,2013-02-25 06:30:00,
2013-02-24 22:35:00,34.0,25.3,30.23,West,275,0.0,0.0,70,0.00,,,0.00,VWS V14.01,2013-02-25 06:35:00,
2013-02-24 22:40:00,33.8,25.1,30.24,West,275,0.0,0.0,70,0.00,,,0.00,VWS V14.01,2013-02-25 06:40:00,
2013-02-24 22:45:00,33.8,25.1,30.24,West,275,0.0,0.0,70,0.00,,,0.00,VWS V14.01,2013-02-25 06:45:00,
2013-02-24 22:50:00,33.7,25.0,30.24,West,275,0.0,0.0,70,0.00,,,0.00,VWS V14.01,2013-02-25 06:50:00,
2013-02-24 22:55:00,33.6,25.2,30.24,West,275,0.0,0.0,71,0.00,,,0.00,VWS V14.01,2013-02-25 06:55:00,
2013-02-24 23:00:00,33.5,25.1,30.24,West,275,0.0,0.0,71,0.00,,,0.00,VWS V14.01,2013-02-25 07:00:00,
2013-02-24 23:05:00,33.3,24.9,30.24,West,275,0.0,0.0,71,0.00,,,0.00,VWS V14.01,2013-02-25 07:05:00,
2013-02-24 23:10:00,33.2,24.8,30.24,West,275,0.0,0.0,71,0.00,,,0.00,VWS V14.01,2013-02-25 07:10:00,
2013-02-24 23:15:00,33.1,24.7,30.25,West,275,0.0,0.0,71,0.00,,,0.00,VWS V14.01,2013-02-25 07:15:00,
2013-02-24 23:20:00,33.0,24.6,30.25,West,275,0.0,0.0,71,0.00,,,0.00,VWS V14.01,2013-02-25 07:20:00,
2013-02-24 23:25:00,32.8,24.8,30.25,West,275,0.0,0.0,72,0.00,,,0.00,VWS V14.01,2013-02-25 07:25:00,
2013-02-24 23:30:00,32.7,24.7,30.25,West,275,0.0,0.0,72,0.00,,,0.00,VWS V14.01,2013-02-25 07:30:00,
2013-02-24 23:35:00,32.6,24.9,30.25,West,275,0.0,0.0,73,0.00,,,0.00,VWS V14.01,2013-02-25 07:35:00,
2013-02-24 23:40:00,32.5,24.8,30.26,West,275,0.0,0.0,73,0.00,,,0.00,VWS V14.01,2013-02-25 07:40:00,
2013-02-24 23:45:00,32.5,24.8,30.26,West,275,0.0,0.0,73,0.00,,,0.00,VWS V14.01,2013-02-25 07:45:00,
2013-02-24 23:50:00,32.4,24.7,30.26,West,275,0.0,0.0,73,0.00,,,0.00,VWS V14.01,2013-02-25 07:50:00,
2013-02-24 23:55:00,32.4,24.7,30.26,West,275,0.0,0.0,73,0.00,,,0.00,VWS V14.01,2013-02-25 07:55:00,